Time,TemperatureF,DewpointF,PressureIn,WindDirection,WindDirectionDegrees,WindSpeedMPH,WindSpeedGustMPH,Humidity,HourlyPrecipIn,Conditions,Clouds,dailyrainin,SoftwareType,DateUTC
2013-01-11 00:04:00,36.0,34.7,29.91,East,98,3.0,5.0,95,0.05,,,0.00,Wunderground v.1.15,2013-01-11 06:04:00,
2013-01-11 00:09:00,36.1,34.8,29.91,East,84,8.0,8.0,95,0.00,,,0.00,Wunderground v.1.15,2013-01-11 06:09:00,
2013-01-11 00:15:00,36.2,34.9,29.91,East,92,6.0,6.0,95,0.00,,,0.00,Wunderground v.1.15,2013-01-11 06:15:00,
2013-01-11 00:20:00,36.3,35.0,29.90,SSE,156,2.0,9.0,95,0.00,,,0.01,Wunderground v.1.15,2013-01-11 06:20:00,
2013-01-11 00:26:00,36.4,35.1,29.90,East,82,3.0,6.0,95,0.00,,,0.01,Wunderground v.1.15,2013-01-11 06:26:00,
2013-01-11 00:31:00,36.5,35.2,29.90,ENE,70,3.0,4.0,95,0.05,,,0.02,Wunderground v.1.15,2013-01-11 06:31:00,
2013-01-11 00:37:00,36.5,35.2,29.89,East,90,4.0,6.0,95,0.05,,,0.02,Wunderground v.1.15,2013-01-11 06:37:00,
2013-01-11 00:42:00,36.5,35.2,29.89,ENE,71,5.0,5.0,95,0.07,,,0.03,Wunderground v.1.15,2013-01-11 06:42:00,
2013-01-11 00:48:00,36.5,35.2,29.89,East,94,2.0,6.0,95,0.06,,,0.03,Wunderground v.1.15,2013-01-11 06:48:00,
2013-01-11 00:54:00,36.7,35.4,29.88,SE,141,5.0,5.0,95,0.04,,,0.03,Wunderground v.1.15,2013-01-11 06:54:00,
2013-01-11 01:00:00,36.7,35.4,29.88,SE,138,1.0,5.0,95,0.00,,,0.03,Wunderground v.1.15,2013-01-11 07:00:00,
2013-01-11 01:05:00,36.9,35.9,29.88,East,96,7.0,7.0,96,0.00,,,0.03,Wunderground v.1.15,2013-01-11 07:05:00,
2013-01-11 01:11:00,36.9,35.9,29.88,East,86,2.0,3.0,96,0.00,,,0.03,Wunderground v.1.15,2013-01-11 07:11:00,
2013-01-11 01:16:00,37.0,36.0,29.87,ENE,70,3.0,4.0,96,0.00,,,0.03,Wunderground v.1.15,2013-01-11 07:16:00,
2013-01-11 01:22:00,37.2,36.2,29.87,East,83,2.0,2.0,96,0.00,,,0.03,Wunderground v.1.15,2013-01-11 07:22:00,
2013-01-11 01:27:00,37.4,36.4,29.86,East,96,1.0,3.0,96,0.00,,,0.03,Wunderground v.1.15,2013-01-11 07:27:00,
2013-01-11 01:32:00,37.2,36.2,29.86,ENE,77,2.0,3.0,96,0.00,,,0.03,Wunderground v.1.15,2013-01-11 07:32:00,
2013-01-11 01:38:00,37.1,36.0,29.86,East,83,2.0,4.0,96,0.00,,,0.03,weatherlink.com 1.10,2013-01-11 07:38:00,
2013-01-11 01:44:00,37.0,36.0,29.85,ENE,63,3.0,3.0,96,0.00,,,0.03,Wunderground v.1.15,2013-01-11 07:44:00,
2013-01-11 01:50:00,37.0,36.0,29.84,ENE,72,2.0,3.0,96,0.00,,,0.03,Wunderground v.1.15,2013-01-11 07:50:00,
2013-01-11 01:56:00,37.0,36.0,29.83,East,89,3.0,4.0,96,0.00,,,0.03,Wunderground v.1.15,2013-01-11 07:56:00,
2013-01-11 02:01:00,37.1,36.1,29.83,East,82,3.0,4.0,96,0.00,,,0.03,Wunderground v.1.15,2013-01-11 08:01:00,
2013-01-11 02:06:00,37.1,36.1,29.83,East,91,3.0,5.0,96,0.00,,,0.03,Wunderground v.1.15,2013-01-11 08:06:00,
2013-01-11 02:11:00,37.1,36.1,29.83,ENE,77,3.0,3.0,96,0.00,,,0.03,Wunderground v.1.15,2013-01-11 08:11:00,
2013-01-11 02:16:00,37.2,36.2,29.83,ENE,58,2.0,6.0,96,0.00,,,0.04,Wunderground v.1.15,2013-01-11 08:16:00,
2013-01-11 02:21:00,37.3,36.3,29.82,NE,53,3.0,4.0,96,0.00,,,0.04,Wunderground v.1.15,2013-01-11 08:21:00,
2013-01-11 02:26:00,37.2,36.2,29.82,ENE,71,4.0,6.0,96,0.00,,,0.04,Wunderground v.1.15,2013-01-11 08:26:00,
2013-01-11 02:31:00,37.3,36.3,29.81,East,80,4.0,5.0,96,0.00,,,0.04,Wunderground v.1.15,2013-01-11 08:31:00,
2013-01-11 02:36:00,37.2,36.2,29.80,ENE,75,3.0,7.0,96,0.00,,,0.04,Wunderground v.1.15,2013-01-11 08:36:00,
2013-01-11 02:41:00,37.2,36.2,29.80,East,82,4.0,4.0,96,0.00,,,0.05,Wunderground v.1.15,2013-01-11 08:41:00,
2013-01-11 02:46:00,37.3,36.3,29.80,East,86,4.0,6.0,96,0.00,,,0.05,Wunderground v.1.15,2013-01-11 08:46:00,
2013-01-11 02:51:00,37.3,36.3,29.79,ENE,75,2.0,4.0,96,0.07,,,0.06,Wunderground v.1.15,2013-01-11 08:51:00,
2013-01-11 02:56:00,37.3,36.3,29.79,ENE,64,4.0,5.0,96,0.07,,,0.06,Wunderground v.1.15,2013-01-11 08:56:00,
2013-01-11 03:01:00,37.2,36.2,29.79,East,84,4.0,4.0,96,0.08,,,0.07,Wunderground v.1.15,2013-01-11 09:01:00,
2013-01-11 03:06:00,37.1,36.1,29.79,ENE,68,2.0,5.0,96,0.06,,,0.07,Wunderground v.1.15,2013-01-11 09:06:00,
2013-01-11 03:11:00,37.3,36.3,29.78,East,86,2.0,3.0,96,0.04,,,0.07,Wunderground v.1.15,2013-01-11 09:11:00,
2013-01-11 03:16:00,37.2,36.2,29.78,ENE,70,2.0,3.0,96,0.00,,,0.07,Wunderground v.1.15,2013-01-11 09:16:00,
2013-01-11 03:21:00,37.4,36.4,29.77,ENE,64,3.0,3.0,96,0.00,,,0.07,Wunderground v.1.15,2013-01-11 09:21:00,
2013-01-11 03:26:00,37.4,36.4,29.77,ENE,70,1.0,4.0,96,0.00,,,0.07,Wunderground v.1.15,2013-01-11 09:26:00,
2013-01-11 03:31:00,37.3,36.3,29.77,ENE,62,5.0,5.0,96,0.00,,,0.07,Wunderground v.1.15,2013-01-11 09:31:00,
2013-01-11 03:36:00,37.3,36.3,29.76,ENE,70,2.0,5.0,96,0.00,,,0.07,Wunderground v.1.15,2013-01-11 09:36:00,
2013-01-11 03:41:00,37.2,36.2,29.75,ENE,66,4.0,5.0,96,0.00,,,0.07,Wunderground v.1.15,2013-01-11 09:41:00,
2013-01-11 03:46:00,37.3,36.3,29.75,ENE,72,1.0,4.0,96,0.00,,,0.07,Wunderground v.1.15,2013-01-11 09:46:00,
2013-01-11 03:51:00,37.4,36.4,29.75,ENE,70,2.0,5.0,96,0.00,,,0.07,Wunderground v.1.15,2013-01-11 09:51:00,
2013-01-11 03:56:00,37.5,36.5,29.74,East,83,3.0,4.0,96,0.00,,,0.07,Wunderground v.1.15,2013-01-11 09:56:00,
2013-01-11 04:01:00,37.5,36.5,29.73,ENE,68,2.0,6.0,96,0.00,,,0.07,Wunderground v.1.15,2013-01-11 10:01:00,
2013-01-11 04:06:00,37.5,36.5,29.73,ENE,76,2.0,4.0,96,0.00,,,0.08,Wunderground v.1.15,2013-01-11 10:06:00,
2013-01-11 04:11:00,37.4,36.4,29.72,ENE,64,2.0,5.0,96,0.00,,,0.08,Wunderground v.1.15,2013-01-11 10:11:00,
2013-01-11 04:16:00,37.3,36.3,29.71,East,83,3.0,6.0,96,0.00,,,0.08,Wunderground v.1.15,2013-01-11 10:16:00,
2013-01-11 04:21:00,37.4,36.4,29.71,NE,56,2.0,6.0,96,0.00,,,0.08,Wunderground v.1.15,2013-01-11 10:21:00,
2013-01-11 04:26:00,37.5,36.5,29.70,ENE,60,2.0,4.0,96,0.00,,,0.08,Wunderground v.1.15,2013-01-11 10:26:00,
2013-01-11 04:31:00,37.7,36.7,29.70,ENE,68,3.0,4.0,96,0.00,,,0.08,Wunderground v.1.15,2013-01-11 10:31:00,
2013-01-11 04:36:00,37.9,36.9,29.70,ENE,67,3.0,6.0,96,0.00,,,0.08,Wunderground v.1.15,2013-01-11 10:36:00,
2013-01-11 04:41:00,37.9,36.9,29.69,ENE,70,2.0,6.0,96,0.00,,,0.08,Wunderground v.1.15,2013-01-11 10:41:00,
2013-01-11 04:46:00,38.0,37.0,29.69,ENE,78,2.0,4.0,96,0.00,,,0.08,Wunderground v.1.15,2013-01-11 10:46:00,
2013-01-11 04:51:00,38.1,37.1,29.69,ENE,70,2.0,4.0,96,0.00,,,0.08,Wunderground v.1.15,2013-01-11 10:51:00,
2013-01-11 04:56:00,37.9,36.9,29.68,ENE,70,1.0,4.0,96,0.00,,,0.08,Wunderground v.1.15,2013-01-11 10:56:00,
2013-01-11 05:01:00,37.5,36.5,29.69,ENE,70,0.0,4.0,96,0.00,,,0.08,Wunderground v.1.15,2013-01-11 11:01:00,
2013-01-11 05:06:00,37.5,36.5,29.70,ENE,70,0.0,1.0,96,0.00,,,0.08,Wunderground v.1.15,2013-01-11 11:06:00,
2013-01-11 05:11:00,37.6,36.6,29.70,ENE,70,0.0,0.0,96,0.00,,,0.08,Wunderground v.1.15,2013-01-11 11:11:00,
2013-01-11 05:16:00,37.6,36.6,29.70,ENE,70,0.0,0.0,96,0.00,,,0.09,Wunderground v.1.15,2013-01-11 11:16:00,
2013-01-11 05:21:00,37.6,36.6,29.69,NE,49,0.0,1.0,96,0.00,,,0.09,Wunderground v.1.15,2013-01-11 11:21:00,
2013-01-11 05:26:00,37.7,36.7,29.69,NE,49,0.0,1.0,96,0.00,,,0.09,Wunderground v.1.15,2013-01-11 11:26:00,
2013-01-11 05:31:00,37.8,36.8,29.69,ESE,103,0.0,1.0,96,0.00,,,0.09,Wunderground v.1.15,2013-01-11 11:31:00,
2013-01-11 05:36:00,37.8,36.8,29.69,ESE,103,0.0,1.0,96,0.00,,,0.09,Wunderground v.1.15,2013-01-11 11:36:00,
2013-01-11 05:41:00,37.9,36.9,29.68,NE,48,0.0,1.0,96,0.00,,,0.09,Wunderground v.1.15,2013-01-11 11:41:00,
2013-01-11 05:46:00,37.9,36.9,29.68,NE,40,0.0,1.0,96,0.00,,,0.09,Wunderground v.1.15,2013-01-11 11:46:00,
2013-01-11 05:51:00,37.7,36.7,29.68,NE,40,0.0,1.0,96,0.00,,,0.09,Wunderground v.1.15,2013-01-11 11:51:00,
2013-01-11 05:56:00,37.8,36.8,29.68,NE,40,0.0,0.0,96,0.00,,,0.09,Wunderground v.1.15,2013-01-11 11:56:00,
2013-01-11 06:01:00,37.2,36.2,29.68,WSW,246,0.0,1.0,96,0.00,,,0.09,Wunderground v.1.15,2013-01-11 12:01:00,
2013-01-11 06:06:00,37.1,36.1,29.69,WSW,246,0.0,0.0,96,0.00,,,0.09,Wunderground v.1.15,2013-01-11 12:06:00,
2013-01-11 06:11:00,37.1,36.1,29.69,WSW,246,1.0,1.0,96,0.00,,,0.10,Wunderground v.1.15,2013-01-11 12:11:00,
2013-01-11 06:16:00,37.2,36.2,29.69,WSW,246,0.0,0.0,96,0.00,,,0.10,Wunderground v.1.15,2013-01-11 12:16:00,
2013-01-11 06:21:00,37.4,36.4,29.69,WSW,246,0.0,0.0,96,0.00,,,0.10,Wunderground v.1.15,2013-01-11 12:21:00,
2013-01-11 06:26:00,37.8,36.8,29.68,WSW,246,0.0,0.0,96,0.04,,,0.10,Wunderground v.1.15,2013-01-11 12:26:00,
2013-01-11 06:31:00,38.0,37.0,29.68,WSW,246,0.0,0.0,96,0.04,,,0.11,Wunderground v.1.15,2013-01-11 12:31:00,
2013-01-11 06:36:00,37.7,36.7,29.68,WSW,247,0.0,1.0,96,0.04,,,0.11,Wunderground v.1.15,2013-01-11 12:36:00,
2013-01-11 06:41:00,36.9,35.9,29.68,WSW,253,1.0,2.0,96,0.04,,,0.11,Wunderground v.1.15,2013-01-11 12:41:00,
2013-01-11 06:46:00,37.0,36.0,29.68,WSW,243,0.0,1.0,96,0.00,,,0.11,Wunderground v.1.15,2013-01-11 12:46:00,
2013-01-11 06:51:00,36.6,35.6,29.68,WSW,257,1.0,1.0,96,0.00,,,0.11,Wunderground v.1.15,2013-01-11 12:51:00,
2013-01-11 06:56:00,36.5,35.5,29.68,WSW,256,0.0,1.0,96,0.00,,,0.11,Wunderground v.1.15,2013-01-11 12:56:00,
2013-01-11 07:01:00,36.1,35.1,29.68,WSW,257,0.0,1.0,96,0.00,,,0.11,Wunderground v.1.15,2013-01-11 13:01:00,
2013-01-11 07:06:00,36.4,35.4,29.69,WSW,256,0.0,1.0,96,0.00,,,0.11,Wunderground v.1.15,2013-01-11 13:06:00,
2013-01-11 07:11:00,36.7,35.7,29.69,West,280,1.0,2.0,96,0.00,,,0.12,Wunderground v.1.15,2013-01-11 13:11:00,
2013-01-11 07:16:00,38.0,37.0,29.69,West,276,0.0,2.0,96,0.00,,,0.12,Wunderground v.1.15,2013-01-11 13:16:00,
2013-01-11 07:21:00,38.3,37.3,29.69,West,276,0.0,2.0,96,0.00,,,0.12,Wunderground v.1.15,2013-01-11 13:21:00,
2013-01-11 07:26:00,38.1,37.1,29.70,West,276,0.0,0.0,96,0.00,,,0.12,Wunderground v.1.15,2013-01-11 13:26:00,
2013-01-11 07:31:00,37.7,36.7,29.69,West,276,0.0,0.0,96,0.00,,,0.12,Wunderground v.1.15,2013-01-11 13:31:00,
2013-01-11 07:36:00,37.9,36.9,29.70,West,276,0.0,0.0,96,0.00,,,0.12,Wunderground v.1.15,2013-01-11 13:36:00,
2013-01-11 07:42:00,38.4,37.6,29.70,West,275,0.0,0.0,97,0.00,,,0.12,Wunderground v.1.15,2013-01-11 13:42:00,
2013-01-11 07:47:00,38.8,38.0,29.70,West,277,0.0,0.0,97,0.00,,,0.12,Wunderground v.1.15,2013-01-11 13:47:00,
2013-01-11 07:52:00,39.0,38.2,29.70,West,276,0.0,0.0,97,0.00,,,0.12,Wunderground v.1.15,2013-01-11 13:52:00,
2013-01-11 07:57:00,39.1,38.3,29.71,WSW,253,0.0,1.0,97,0.00,,,0.12,Wunderground v.1.15,2013-01-11 13:57:00,
2013-01-11 08:02:00,39.1,38.3,29.70,West,265,0.0,0.0,97,0.00,,,0.12,Wunderground v.1.15,2013-01-11 14:02:00,
2013-01-11 08:07:00,39.2,38.4,29.70,WSW,255,1.0,2.0,97,0.00,,,0.12,Wunderground v.1.15,2013-01-11 14:07:00,
2013-01-11 08:12:00,39.2,38.4,29.70,WSW,255,1.0,1.0,97,0.00,,,0.12,Wunderground v.1.15,2013-01-11 14:12:00,
2013-01-11 08:17:00,39.2,38.4,29.71,West,263,1.0,3.0,97,0.00,,,0.12,Wunderground v.1.15,2013-01-11 14:17:00,
2013-01-11 08:22:00,39.7,38.9,29.70,West,262,1.0,1.0,97,0.00,,,0.12,Wunderground v.1.15,2013-01-11 14:22:00,
2013-01-11 08:27:00,39.9,39.1,29.70,SW,233,1.0,3.0,97,0.00,,,0.12,Wunderground v.1.15,2013-01-11 14:27:00,
2013-01-11 08:32:00,40.2,39.4,29.70,SW,235,3.0,3.0,97,0.00,,,0.12,Wunderground v.1.15,2013-01-11 14:32:00,
2013-01-11 08:37:00,40.9,40.1,29.70,SSW,201,3.0,4.0,97,0.00,,,0.12,Wunderground v.1.15,2013-01-11 14:37:00,
2013-01-11 08:42:00,41.7,40.9,29.70,SW,235,2.0,3.0,97,0.00,,,0.12,Wunderground v.1.15,2013-01-11 14:42:00,
2013-01-11 08:47:00,42.1,41.3,29.69,West,263,5.0,5.0,97,0.00,,,0.12,Wunderground v.1.15,2013-01-11 14:47:00,
2013-01-11 08:52:00,42.3,41.5,29.68,WSW,253,4.0,4.0,97,0.00,,,0.12,Wunderground v.1.15,2013-01-11 14:52:00,
2013-01-11 08:57:00,42.4,41.6,29.68,West,261,6.0,7.0,97,0.00,,,0.12,Wunderground v.1.15,2013-01-11 14:57:00,
2013-01-11 09:02:00,42.0,41.2,29.68,West,259,4.0,4.0,97,0.00,,,0.12,Wunderground v.1.15,2013-01-11 15:02:00,
2013-01-11 09:07:00,42.1,41.3,29.68,West,274,3.0,8.0,97,0.00,,,0.12,Wunderground v.1.15,2013-01-11 15:07:00,
2013-01-11 09:12:00,41.9,41.1,29.67,West,271,4.0,4.0,97,0.00,,,0.12,Wunderground v.1.15,2013-01-11 15:12:00,
2013-01-11 09:17:00,41.9,41.1,29.68,WSW,239,5.0,8.0,97,0.00,,,0.12,Wunderground v.1.15,2013-01-11 15:17:00,
2013-01-11 09:22:00,42.2,41.4,29.68,SW,214,4.0,5.0,97,0.00,,,0.12,Wunderground v.1.15,2013-01-11 15:22:00,
2013-01-11 09:27:00,42.3,41.5,29.68,WSW,246,4.0,10.0,97,0.00,,,0.12,Wunderground v.1.15,2013-01-11 15:27:00,
2013-01-11 09:32:00,42.3,41.5,29.68,West,260,2.0,5.0,97,0.00,,,0.12,Wunderground v.1.15,2013-01-11 15:32:00,
2013-01-11 09:37:00,42.5,41.7,29.68,WSW,246,1.0,5.0,97,0.00,,,0.12,Wunderground v.1.15,2013-01-11 15:37:00,
2013-01-11 09:42:00,42.6,41.8,29.68,WSW,255,2.0,2.0,97,0.00,,,0.12,Wunderground v.1.15,2013-01-11 15:42:00,
2013-01-11 09:47:00,42.7,41.9,29.68,West,269,4.0,6.0,97,0.00,,,0.12,Wunderground v.1.15,2013-01-11 15:47:00,
2013-01-11 09:52:00,43.1,42.3,29.68,West,264,2.0,4.0,97,0.00,,,0.12,Wunderground v.1.15,2013-01-11 15:52:00,
2013-01-11 09:57:00,43.1,42.0,29.67,West,274,2.0,4.0,96,0.00,,,0.12,Wunderground v.1.15,2013-01-11 15:57:00,
2013-01-11 10:02:00,43.4,42.3,29.67,WSW,257,4.0,4.0,96,0.00,,,0.12,Wunderground v.1.15,2013-01-11 16:02:00,
2013-01-11 10:07:00,43.4,42.3,29.67,WSW,245,2.0,4.0,96,0.00,,,0.12,Wunderground v.1.15,2013-01-11 16:07:00,
2013-01-11 10:12:00,43.7,42.6,29.69,SW,218,7.0,8.0,96,0.00,,,0.12,Wunderground v.1.15,2013-01-11 16:12:00,
2013-01-11 10:17:00,43.8,42.7,29.69,SW,217,3.0,8.0,96,0.00,,,0.12,Wunderground v.1.15,2013-01-11 16:17:00,
2013-01-11 10:22:00,43.6,42.5,29.68,WSW,252,3.0,4.0,96,0.00,,,0.12,Wunderground v.1.15,2013-01-11 16:22:00,
2013-01-11 10:27:00,43.8,42.7,29.69,WSW,252,1.0,7.0,96,0.00,,,0.12,Wunderground v.1.15,2013-01-11 16:27:00,
2013-01-11 10:32:00,43.9,42.8,29.69,WSW,239,5.0,6.0,96,0.00,,,0.12,Wunderground v.1.15,2013-01-11 16:32:00,
2013-01-11 10:37:00,43.9,42.8,29.69,WSW,242,3.0,7.0,96,0.00,,,0.12,Wunderground v.1.15,2013-01-11 16:37:00,
2013-01-11 10:42:00,43.7,42.6,29.70,SW,224,6.0,6.0,96,0.00,,,0.12,Wunderground v.1.15,2013-01-11 16:42:00,
2013-01-11 10:47:00,43.3,42.0,29.70,SW,224,5.0,9.0,95,0.00,,,0.12,Wunderground v.1.15,2013-01-11 16:47:00,
2013-01-11 10:52:00,43.1,41.8,29.70,WSW,242,6.0,6.0,95,0.00,,,0.12,Wunderground v.1.15,2013-01-11 16:52:00,
2013-01-11 10:57:00,42.9,41.6,29.70,WSW,250,5.0,10.0,95,0.00,,,0.12,Wunderground v.1.15,2013-01-11 16:57:00,
2013-01-11 11:02:00,42.8,41.7,29.70,WSW,250,5.0,5.0,96,0.00,,,0.12,Wunderground v.1.15,2013-01-11 17:02:00,
2013-01-11 11:07:00,42.6,41.5,29.69,SW,236,3.0,7.0,96,0.00,,,0.12,Wunderground v.1.15,2013-01-11 17:07:00,
2013-01-11 11:12:00,42.6,41.5,29.69,WSW,240,3.0,4.0,96,0.00,,,0.12,Wunderground v.1.15,2013-01-11 17:12:00,
2013-01-11 11:17:00,42.4,41.3,29.70,WSW,252,4.0,10.0,96,0.00,,,0.12,Wunderground v.1.15,2013-01-11 17:17:00,
2013-01-11 11:22:00,42.3,41.2,29.71,West,262,6.0,6.0,96,0.00,,,0.12,Wunderground v.1.15,2013-01-11 17:22:00,
2013-01-11 11:27:00,42.4,41.3,29.71,SW,235,6.0,6.0,96,0.00,,,0.12,Wunderground v.1.15,2013-01-11 17:27:00,
2013-01-11 11:32:00,42.5,41.4,29.70,WSW,246,4.0,4.0,96,0.00,,,0.12,Wunderground v.1.15,2013-01-11 17:32:00,
2013-01-11 11:37:00,42.6,41.5,29.70,SSW,210,2.0,5.0,96,0.00,,,0.12,Wunderground v.1.15,2013-01-11 17:37:00,
2013-01-11 11:42:00,42.8,41.7,29.70,SW,236,4.0,4.0,96,0.00,,,0.12,Wunderground v.1.15,2013-01-11 17:42:00,
2013-01-11 11:47:00,42.8,41.7,29.70,WSW,245,2.0,7.0,96,0.00,,,0.12,Wunderground v.1.15,2013-01-11 17:47:00,
2013-01-11 11:52:00,42.5,41.4,29.70,WSW,256,2.0,3.0,96,0.00,,,0.12,Wunderground v.1.15,2013-01-11 17:52:00,
2013-01-11 11:57:00,42.5,41.4,29.69,WSW,243,2.0,9.0,96,0.00,,,0.12,Wunderground v.1.15,2013-01-11 17:57:00,
2013-01-11 12:02:00,42.4,41.3,29.69,West,270,2.0,3.0,96,0.00,,,0.12,Wunderground v.1.15,2013-01-11 18:02:00,
2013-01-11 12:07:00,42.5,41.4,29.69,WSW,252,2.0,6.0,96,0.00,,,0.12,Wunderground v.1.15,2013-01-11 18:07:00,
2013-01-11 12:12:00,42.4,41.3,29.69,SW,217,3.0,4.0,96,0.00,,,0.12,Wunderground v.1.15,2013-01-11 18:12:00,
2013-01-11 12:17:00,42.3,41.2,29.69,WSW,246,6.0,7.0,96,0.00,,,0.12,Wunderground v.1.15,2013-01-11 18:17:00,
2013-01-11 12:22:00,42.2,41.1,29.70,SW,235,6.0,7.0,96,0.00,,,0.12,Wunderground v.1.15,2013-01-11 18:22:00,
2013-01-11 12:27:00,42.0,40.9,29.70,WSW,256,4.0,8.0,96,0.00,,,0.12,Wunderground v.1.15,2013-01-11 18:27:00,
2013-01-11 12:32:00,42.0,40.9,29.70,SW,233,5.0,9.0,96,0.00,,,0.12,Wunderground v.1.15,2013-01-11 18:32:00,
2013-01-11 12:37:00,42.1,41.0,29.70,WSW,246,3.0,9.0,96,0.00,,,0.12,Wunderground v.1.15,2013-01-11 18:37:00,
2013-01-11 12:42:00,42.1,41.0,29.70,WSW,253,6.0,7.0,96,0.00,,,0.12,Wunderground v.1.15,2013-01-11 18:42:00,
2013-01-11 12:47:00,42.2,41.1,29.70,West,271,5.0,11.0,96,0.00,,,0.12,Wunderground v.1.15,2013-01-11 18:47:00,
2013-01-11 12:52:00,42.1,41.0,29.70,SW,217,5.0,6.0,96,0.00,,,0.12,Wunderground v.1.15,2013-01-11 18:52:00,
2013-01-11 12:57:00,42.1,41.0,29.70,SW,226,4.0,12.0,96,0.00,,,0.12,Wunderground v.1.15,2013-01-11 18:57:00,
2013-01-11 13:02:00,42.1,41.0,29.70,West,273,4.0,7.0,96,0.00,,,0.12,Wunderground v.1.15,2013-01-11 19:02:00,
2013-01-11 13:07:00,42.0,40.9,29.70,WSW,243,5.0,7.0,96,0.00,,,0.12,Wunderground v.1.15,2013-01-11 19:07:00,
2013-01-11 13:12:00,42.1,41.0,29.70,WSW,242,3.0,4.0,96,0.00,,,0.12,Wunderground v.1.15,2013-01-11 19:12:00,
2013-01-11 13:17:00,42.0,40.9,29.70,SW,236,3.0,7.0,96,0.00,,,0.12,Wunderground v.1.15,2013-01-11 19:17:00,
2013-01-11 13:22:00,42.0,40.9,29.70,SW,228,3.0,3.0,96,0.00,,,0.12,Wunderground v.1.15,2013-01-11 19:22:00,
2013-01-11 13:27:00,42.1,41.0,29.71,WSW,246,3.0,5.0,96,0.00,,,0.12,Wunderground v.1.15,2013-01-11 19:27:00,
2013-01-11 13:32:00,42.2,41.1,29.70,SW,226,1.0,2.0,96,0.00,,,0.12,Wunderground v.1.15,2013-01-11 19:32:00,
2013-01-11 13:37:00,42.3,41.2,29.71,SW,226,3.0,5.0,96,0.00,,,0.12,Wunderground v.1.15,2013-01-11 19:37:00,
2013-01-11 13:42:00,42.4,41.3,29.70,WSW,249,2.0,2.0,96,0.00,,,0.12,Wunderground v.1.15,2013-01-11 19:42:00,
2013-01-11 13:47:00,42.5,41.4,29.70,SW,224,2.0,5.0,96,0.00,,,0.12,Wunderground v.1.15,2013-01-11 19:47:00,
2013-01-11 13:52:00,42.6,41.5,29.70,SW,229,2.0,2.0,96,0.00,,,0.12,Wunderground v.1.15,2013-01-11 19:52:00,
2013-01-11 13:58:00,42.8,42.0,29.70,WSW,238,1.0,6.0,97,0.00,,,0.12,Wunderground v.1.15,2013-01-11 19:58:00,
2013-01-11 14:03:00,42.9,42.1,29.70,SSW,210,1.0,3.0,97,0.00,,,0.12,Wunderground v.1.15,2013-01-11 20:03:00,
2013-01-11 14:08:00,42.9,41.8,29.69,SW,224,0.0,5.0,96,0.00,,,0.12,Wunderground v.1.15,2013-01-11 20:08:00,
2013-01-11 14:13:00,43.1,42.3,29.70,West,274,3.0,4.0,97,0.00,,,0.12,Wunderground v.1.15,2013-01-11 20:13:00,
2013-01-11 14:18:00,43.1,42.3,29.71,SW,225,4.0,5.0,97,0.00,,,0.12,Wunderground v.1.15,2013-01-11 20:18:00,
2013-01-11 14:23:00,43.1,42.0,29.72,SW,217,3.0,5.0,96,0.00,,,0.12,Wunderground v.1.15,2013-01-11 20:23:00,
2013-01-11 14:28:00,43.3,42.5,29.71,SSW,205,2.0,6.0,97,0.00,,,0.12,Wunderground v.1.15,2013-01-11 20:28:00,
2013-01-11 14:33:00,43.2,42.1,29.71,WSW,238,5.0,5.0,96,0.00,,,0.12,Wunderground v.1.15,2013-01-11 20:33:00,
2013-01-11 14:38:00,43.2,42.1,29.70,South,191,4.0,6.0,96,0.00,,,0.12,Wunderground v.1.15,2013-01-11 20:38:00,
2013-01-11 14:43:00,43.2,42.4,29.71,SSW,205,2.0,5.0,97,0.00,,,0.12,Wunderground v.1.15,2013-01-11 20:43:00,
2013-01-11 14:48:00,43.2,42.1,29.71,SSW,207,4.0,9.0,96,0.00,,,0.12,Wunderground v.1.15,2013-01-11 20:48:00,
2013-01-11 14:53:00,43.2,42.4,29.71,SW,235,3.0,5.0,97,0.00,,,0.12,Wunderground v.1.15,2013-01-11 20:53:00,
2013-01-11 14:58:00,43.4,42.6,29.71,WSW,256,3.0,7.0,97,0.00,,,0.12,Wunderground v.1.15,2013-01-11 20:58:00,
2013-01-11 15:03:00,43.3,42.5,29.70,WSW,242,5.0,5.0,97,0.00,,,0.12,Wunderground v.1.15,2013-01-11 21:03:00,
2013-01-11 15:08:00,43.5,42.7,29.69,South,172,2.0,5.0,97,0.00,,,0.12,Wunderground v.1.15,2013-01-11 21:08:00,
2013-01-11 15:13:00,43.5,42.7,29.70,SSE,160,3.0,4.0,97,0.00,,,0.12,Wunderground v.1.15,2013-01-11 21:13:00,
2013-01-11 15:18:00,43.8,43.0,29.69,South,173,3.0,6.0,97,0.00,,,0.12,Wunderground v.1.15,2013-01-11 21:18:00,
2013-01-11 15:23:00,43.9,43.1,29.69,SSW,205,0.0,2.0,97,0.00,,,0.12,Wunderground v.1.15,2013-01-11 21:23:00,
2013-01-11 15:28:00,43.9,43.1,29.69,SE,128,0.0,3.0,97,0.00,,,0.12,Wunderground v.1.15,2013-01-11 21:28:00,
2013-01-11 15:33:00,44.0,43.2,29.68,ESE,119,0.0,3.0,97,0.00,,,0.12,Wunderground v.1.15,2013-01-11 21:33:00,
2013-01-11 15:38:00,44.1,43.3,29.68,SE,136,0.0,3.0,97,0.00,,,0.12,Wunderground v.1.15,2013-01-11 21:38:00,
2013-01-11 15:43:00,44.2,43.4,29.68,SSE,155,0.0,1.0,97,0.00,,,0.12,Wunderground v.1.15,2013-01-11 21:43:00,
2013-01-11 15:48:00,44.2,43.4,29.68,WSW,239,0.0,3.0,97,0.00,,,0.12,Wunderground v.1.15,2013-01-11 21:48:00,
2013-01-11 15:53:00,44.3,43.5,29.68,East,96,3.0,4.0,97,0.00,,,0.12,Wunderground v.1.15,2013-01-11 21:53:00,
2013-01-11 15:58:00,44.3,43.5,29.69,SSE,159,2.0,5.0,97,0.00,,,0.12,Wunderground v.1.15,2013-01-11 21:58:00,
2013-01-11 16:03:00,44.4,43.6,29.69,ESE,111,2.0,4.0,97,0.00,,,0.12,Wunderground v.1.15,2013-01-11 22:03:00,
2013-01-11 16:08:00,44.4,43.6,29.68,SSE,149,1.0,4.0,97,0.00,,,0.12,Wunderground v.1.15,2013-01-11 22:08:00,
2013-01-11 16:13:00,44.7,43.9,29.69,South,180,3.0,4.0,97,0.00,,,0.12,Wunderground v.1.15,2013-01-11 22:13:00,
2013-01-11 16:18:00,44.7,43.9,29.68,SSW,206,1.0,6.0,97,0.00,,,0.12,Wunderground v.1.15,2013-01-11 22:18:00,
2013-01-11 16:23:00,44.7,43.9,29.69,South,190,1.0,5.0,97,0.00,,,0.12,Wunderground v.1.15,2013-01-11 22:23:00,
2013-01-11 16:28:00,44.7,43.9,29.69,SSW,200,0.0,8.0,97,0.00,,,0.12,Wunderground v.1.15,2013-01-11 22:28:00,
2013-01-11 16:33:00,44.8,44.0,29.69,East,89,3.0,7.0,97,0.00,,,0.12,Wunderground v.1.15,2013-01-11 22:33:00,
2013-01-11 16:38:00,45.1,44.3,29.69,SSW,201,3.0,9.0,97,0.00,,,0.12,Wunderground v.1.15,2013-01-11 22:38:00,
2013-01-11 16:43:00,45.0,44.2,29.68,South,169,6.0,6.0,97,0.00,,,0.12,Wunderground v.1.15,2013-01-11 22:43:00,
2013-01-11 16:48:00,45.2,44.4,29.68,SSW,204,4.0,8.0,97,0.00,,,0.12,Wunderground v.1.15,2013-01-11 22:48:00,
2013-01-11 16:53:00,45.2,44.4,29.68,SE,141,5.0,6.0,97,0.00,,,0.12,Wunderground v.1.15,2013-01-11 22:53:00,
2013-01-11 16:58:00,45.3,44.5,29.68,SSE,166,3.0,6.0,97,0.00,,,0.12,Wunderground v.1.15,2013-01-11 22:58:00,
2013-01-11 17:03:00,45.2,44.4,29.68,SE,136,5.0,6.0,97,0.00,,,0.12,Wunderground v.1.15,2013-01-11 23:03:00,
2013-01-11 17:08:00,45.5,44.7,29.69,South,181,2.0,9.0,97,0.00,,,0.12,Wunderground v.1.15,2013-01-11 23:08:00,
2013-01-11 17:13:00,45.5,44.7,29.68,SSE,149,0.0,7.0,97,0.00,,,0.12,Wunderground v.1.15,2013-01-11 23:13:00,
2013-01-11 17:18:00,45.6,44.8,29.68,SSE,149,3.0,8.0,97,0.00,,,0.12,Wunderground v.1.15,2013-01-11 23:18:00,
2013-01-11 17:23:00,45.5,44.7,29.68,ESE,110,3.0,7.0,97,0.00,,,0.12,Wunderground v.1.15,2013-01-11 23:23:00,
2013-01-11 17:28:00,45.6,44.8,29.68,SSE,160,3.0,7.0,97,0.00,,,0.12,Wunderground v.1.15,2013-01-11 23:28:00,
2013-01-11 17:33:00,45.7,44.9,29.68,SSE,153,6.0,7.0,97,0.00,,,0.12,Wunderground v.1.15,2013-01-11 23:33:00,
2013-01-11 17:38:00,45.8,45.0,29.68,SSE,155,6.0,9.0,97,0.00,,,0.12,Wunderground v.1.15,2013-01-11 23:38:00,
2013-01-11 17:43:00,45.8,45.0,29.69,South,169,1.0,5.0,97,0.00,,,0.12,Wunderground v.1.15,2013-01-11 23:43:00,
2013-01-11 17:48:00,45.9,45.1,29.69,West,269,4.0,6.0,97,0.00,,,0.12,Wunderground v.1.15,2013-01-11 23:48:00,
2013-01-11 17:53:00,45.9,45.1,29.69,SSW,195,3.0,5.0,97,0.00,,,0.12,Wunderground v.1.15,2013-01-11 23:53:00,
2013-01-11 17:58:00,45.9,45.1,29.69,SSW,194,2.0,6.0,97,0.00,,,0.12,Wunderground v.1.15,2013-01-11 23:58:00,
2013-01-11 18:03:00,45.9,45.1,29.69,SW,225,3.0,4.0,97,0.00,,,0.12,Wunderground v.1.15,2013-01-12 00:03:00,
2013-01-11 18:08:00,45.9,45.1,29.69,SSW,206,1.0,6.0,97,0.00,,,0.12,Wunderground v.1.15,2013-01-12 00:08:00,
2013-01-11 18:13:00,46.0,45.2,29.69,SE,129,1.0,5.0,97,0.00,,,0.12,Wunderground v.1.15,2013-01-12 00:13:00,
2013-01-11 18:18:00,46.0,45.2,29.69,SE,138,1.0,6.0,97,0.00,,,0.12,Wunderground v.1.15,2013-01-12 00:18:00,
2013-01-11 18:23:00,46.1,45.3,29.69,SE,135,2.0,5.0,97,0.00,,,0.12,Wunderground v.1.15,2013-01-12 00:23:00,
2013-01-11 18:28:00,46.3,45.5,29.69,SSW,211,1.0,8.0,97,0.00,,,0.12,Wunderground v.1.15,2013-01-12 00:28:00,
2013-01-11 18:33:00,46.3,45.5,29.69,ESE,114,4.0,6.0,97,0.00,,,0.12,Wunderground v.1.15,2013-01-12 00:33:00,
2013-01-11 18:38:00,46.4,45.6,29.69,SE,131,3.0,6.0,97,0.00,,,0.12,Wunderground v.1.15,2013-01-12 00:38:00,
2013-01-11 18:43:00,46.3,45.5,29.69,SW,225,3.0,8.0,97,0.00,,,0.12,Wunderground v.1.15,2013-01-12 00:43:00,
2013-01-11 18:48:00,46.4,45.3,29.69,SSW,200,2.0,8.0,96,0.00,,,0.12,Wunderground v.1.15,2013-01-12 00:48:00,
2013-01-11 18:53:00,46.5,45.4,29.68,SSW,200,4.0,8.0,96,0.00,,,0.12,Wunderground v.1.15,2013-01-12 00:53:00,
2013-01-11 18:58:00,46.5,45.4,29.68,SSE,159,4.0,8.0,96,0.00,,,0.12,Wunderground v.1.15,2013-01-12 00:58:00,
2013-01-11 19:03:00,46.9,45.8,29.67,SE,145,4.0,9.0,96,0.00,,,0.12,Wunderground v.1.15,2013-01-12 01:03:00,
2013-01-11 19:08:00,47.0,45.9,29.66,SSE,152,6.0,10.0,96,0.00,,,0.12,Wunderground v.1.15,2013-01-12 01:08:00,
2013-01-11 19:13:00,47.3,46.2,29.67,South,188,2.0,9.0,96,0.00,,,0.12,Wunderground v.1.15,2013-01-12 01:13:00,
2013-01-11 19:18:00,47.2,46.1,29.68,SSW,207,8.0,12.0,96,0.00,,,0.12,Wunderground v.1.15,2013-01-12 01:18:00,
2013-01-11 19:23:00,47.4,46.3,29.67,ESE,120,4.0,8.0,96,0.00,,,0.12,Wunderground v.1.15,2013-01-12 01:23:00,
2013-01-11 19:28:00,47.6,46.5,29.67,SSE,166,4.0,15.0,96,0.00,,,0.12,Wunderground v.1.15,2013-01-12 01:28:00,
2013-01-11 19:34:00,47.6,46.2,29.66,South,172,3.0,7.0,95,0.00,,,0.12,Wunderground v.1.15,2013-01-12 01:34:00,
2013-01-11 19:39:00,47.5,46.1,29.67,SSE,152,6.0,8.0,95,0.00,,,0.12,Wunderground v.1.15,2013-01-12 01:39:00,
2013-01-11 19:44:00,47.6,46.2,29.67,SSE,152,4.0,6.0,95,0.00,,,0.12,Wunderground v.1.15,2013-01-12 01:44:00,
2013-01-11 19:49:00,47.7,46.3,29.65,SE,142,4.0,9.0,95,0.00,,,0.12,Wunderground v.1.15,2013-01-12 01:49:00,
2013-01-11 19:54:00,47.8,46.4,29.66,SSW,211,6.0,9.0,95,0.00,,,0.12,Wunderground v.1.15,2013-01-12 01:54:00,
2013-01-11 19:59:00,47.9,46.3,29.66,WSW,246,4.0,11.0,94,0.00,,,0.12,Wunderground v.1.15,2013-01-12 01:59:00,
2013-01-11 20:04:00,48.0,46.4,29.66,SW,233,3.0,8.0,94,0.00,,,0.12,Wunderground v.1.15,2013-01-12 02:04:00,
2013-01-11 20:09:00,48.0,46.4,29.66,South,190,6.0,9.0,94,0.00,,,0.12,Wunderground v.1.15,2013-01-12 02:09:00,
2013-01-11 20:14:00,48.1,46.5,29.66,South,174,1.0,7.0,94,0.00,,,0.12,Wunderground v.1.15,2013-01-12 02:14:00,
2013-01-11 20:19:00,48.2,46.6,29.67,SSE,166,2.0,10.0,94,0.00,,,0.12,Wunderground v.1.15,2013-01-12 02:19:00,
2013-01-11 20:24:00,48.4,46.8,29.66,South,184,7.0,10.0,94,0.00,,,0.12,Wunderground v.1.15,2013-01-12 02:24:00,
2013-01-11 20:29:00,48.5,46.6,29.66,South,188,5.0,11.0,93,0.00,,,0.12,Wunderground v.1.15,2013-01-12 02:29:00,
2013-01-11 20:34:00,48.5,46.6,29.66,SSE,152,2.0,8.0,93,0.00,,,0.12,Wunderground v.1.15,2013-01-12 02:34:00,
2013-01-11 20:39:00,48.5,46.6,29.65,SW,214,3.0,10.0,93,0.00,,,0.12,Wunderground v.1.15,2013-01-12 02:39:00,
2013-01-11 20:44:00,48.4,46.5,29.65,SSW,203,7.0,11.0,93,0.00,,,0.12,Wunderground v.1.15,2013-01-12 02:44:00,
2013-01-11 20:49:00,48.7,46.8,29.65,SE,130,7.0,11.0,93,0.00,,,0.12,Wunderground v.1.15,2013-01-12 02:49:00,
2013-01-11 20:54:00,48.8,46.9,29.65,SSE,163,6.0,10.0,93,0.00,,,0.12,Wunderground v.1.15,2013-01-12 02:54:00,
2013-01-11 20:59:00,48.8,46.6,29.64,ESE,122,5.0,10.0,92,0.00,,,0.12,Wunderground v.1.15,2013-01-12 02:59:00,
2013-01-11 21:04:00,48.8,46.9,29.64,SSE,149,5.0,9.0,93,0.00,,,0.12,Wunderground v.1.15,2013-01-12 03:04:00,
2013-01-11 21:09:00,48.9,46.7,29.65,SSW,204,4.0,11.0,92,0.00,,,0.12,Wunderground v.1.15,2013-01-12 03:09:00,
2013-01-11 21:14:00,49.1,46.9,29.66,South,188,3.0,13.0,92,0.00,,,0.12,Wunderground v.1.15,2013-01-12 03:14:00,
2013-01-11 21:19:00,49.0,46.8,29.66,SSE,167,3.0,13.0,92,0.00,,,0.12,Wunderground v.1.15,2013-01-12 03:19:00,
2013-01-11 21:24:00,49.1,46.6,29.65,SW,231,6.0,8.0,91,0.00,,,0.12,Wunderground v.1.15,2013-01-12 03:24:00,
2013-01-11 21:29:00,48.9,46.4,29.65,SSW,203,3.0,9.0,91,0.00,,,0.12,Wunderground v.1.15,2013-01-12 03:29:00,
2013-01-11 21:34:00,49.0,46.8,29.65,South,173,6.0,12.0,92,0.00,,,0.12,Wunderground v.1.15,2013-01-12 03:34:00,
2013-01-11 21:39:00,49.1,46.6,29.65,SW,236,5.0,13.0,91,0.00,,,0.12,Wunderground v.1.15,2013-01-12 03:39:00,
2013-01-11 21:44:00,49.1,46.6,29.64,South,186,3.0,11.0,91,0.00,,,0.12,Wunderground v.1.15,2013-01-12 03:44:00,
2013-01-11 21:49:00,49.2,46.7,29.63,SSE,150,2.0,12.0,91,0.00,,,0.12,Wunderground v.1.15,2013-01-12 03:49:00,
2013-01-11 21:55:00,49.1,46.6,29.64,SW,236,3.0,11.0,91,0.00,,,0.12,Wunderground v.1.15,2013-01-12 03:55:00,
2013-01-11 22:00:00,49.0,46.5,29.63,SSE,162,7.0,11.0,91,0.00,,,0.12,Wunderground v.1.15,2013-01-12 04:00:00,
2013-01-11 22:05:00,49.0,46.5,29.63,South,190,3.0,7.0,91,0.00,,,0.12,Wunderground v.1.15,2013-01-12 04:05:00,
2013-01-11 22:10:00,48.9,46.1,29.63,SE,142,3.0,10.0,90,0.00,,,0.12,Wunderground v.1.15,2013-01-12 04:10:00,
2013-01-11 22:15:00,48.8,46.3,29.62,SSE,150,5.0,10.0,91,0.00,,,0.12,Wunderground v.1.15,2013-01-12 04:15:00,
2013-01-11 22:20:00,48.8,46.3,29.63,SSE,148,5.0,10.0,91,0.00,,,0.12,Wunderground v.1.15,2013-01-12 04:20:00,
2013-01-11 22:25:00,48.9,46.4,29.62,SW,236,14.0,14.0,91,0.00,,,0.12,Wunderground v.1.15,2013-01-12 04:25:00,
2013-01-11 22:30:00,49.3,46.5,29.62,SW,217,7.0,14.0,90,0.00,,,0.12,Wunderground v.1.15,2013-01-12 04:30:00,
2013-01-11 22:35:00,49.2,46.4,29.62,SW,219,7.0,11.0,90,0.00,,,0.12,Wunderground v.1.15,2013-01-12 04:35:00,
2013-01-11 22:40:00,49.1,46.3,29.62,SW,225,12.0,14.0,90,0.00,,,0.12,Wunderground v.1.15,2013-01-12 04:40:00,
2013-01-11 22:45:00,49.1,46.3,29.62,South,179,5.0,16.0,90,0.00,,,0.12,Wunderground v.1.15,2013-01-12 04:45:00,
2013-01-11 22:50:00,49.2,46.4,29.61,SW,235,2.0,16.0,90,0.00,,,0.12,Wunderground v.1.15,2013-01-12 04:50:00,
2013-01-11 22:55:00,49.2,46.4,29.62,South,170,10.0,13.0,90,0.00,,,0.12,Wunderground v.1.15,2013-01-12 04:55:00,
2013-01-11 23:00:00,49.3,46.2,29.62,WSW,248,10.0,13.0,89,0.00,,,0.12,Wunderground v.1.15,2013-01-12 05:00:00,
2013-01-11 23:01:00,49.3,46.2,29.62,South,184,6.0,13.0,89,0.00,,,0.12,Wunderground v.1.15,2013-01-12 05:01:00,
2013-01-11 23:06:00,49.3,46.2,29.61,South,191,10.0,10.0,89,0.00,,,0.12,Wunderground v.1.15,2013-01-12 05:06:00,
2013-01-11 23:11:00,49.3,46.2,29.61,SSW,212,6.0,12.0,89,0.00,,,0.12,Wunderground v.1.15,2013-01-12 05:11:00,
2013-01-11 23:16:00,49.2,46.1,29.62,SW,214,7.0,10.0,89,0.00,,,0.12,Wunderground v.1.15,2013-01-12 05:16:00,
2013-01-11 23:21:00,49.3,46.2,29.61,SW,232,8.0,12.0,89,0.00,,,0.12,Wunderground v.1.15,2013-01-12 05:21:00,
2013-01-11 23:26:00,49.3,46.2,29.62,SW,224,11.0,11.0,89,0.00,,,0.12,Wunderground v.1.15,2013-01-12 05:26:00,
2013-01-11 23:31:00,49.7,46.3,29.62,SW,214,5.0,15.0,88,0.00,,,0.12,Wunderground v.1.15,2013-01-12 05:31:00,
2013-01-11 23:36:00,50.0,46.6,29.61,South,180,6.0,11.0,88,0.00,,,0.12,Wunderground v.1.15,2013-01-12 05:36:00,
2013-01-11 23:41:00,50.2,46.8,29.62,SW,232,6.0,17.0,88,0.00,,,0.12,Wunderground v.1.15,2013-01-12 05:41:00,
2013-01-11 23:46:00,50.4,46.7,29.62,West,281,7.0,14.0,87,0.00,,,0.12,Wunderground v.1.15,2013-01-12 05:46:00,
2013-01-11 23:51:00,50.5,46.8,29.62,SW,228,4.0,16.0,87,0.00,,,0.12,Wunderground v.1.15,2013-01-12 05:51:00,
2013-01-11 23:57:00,50.6,46.6,29.61,WSW,248,7.0,15.0,86,0.00,,,0.12,Wunderground v.1.15,2013-01-12 05:57:00,